Time;durP1;ratioP1;P1;durP2;ratioP2;P2;SDS_P1;SDS_P2;PMS_P1;PMS_P2;Temp;Humidity;BMP_temperature;BMP_pressure;BME280_temperature;BME280_humidity;BME280_pressure;Samples;Min_cycle;Max_cycle;Signal;HPM_P1;HPM_P2
2021/09/27 00:01:32;;;;;;;;;;;16.80;99.90;;;;;;5067469;28;19928;-61
2021/09/27 00:03:58;;;;;;;;;;;16.90;99.90;;;;;;5066754;28;20115;-61
2021/09/27 00:06:24;;;;;;;;;;;16.90;99.90;;;;;;5068995;28;19916;-61
2021/09/27 00:08:50;;;;;;;;;;;16.90;99.90;;;;;;5064393;28;19912;-61
2021/09/27 00:11:22;;;;;;;;;;;16.90;99.90;;;;;;5070249;28;19912;-62
2021/09/27 00:13:50;;;;;;;;;;;16.90;99.90;;;;;;5068223;28;19912;-61
2021/09/27 00:16:17;;;;;;;;;;;16.90;99.90;;;;;;5066516;28;20282;-61
2021/09/27 00:18:43;;;;;;;;;;;16.80;99.90;;;;;;5068174;28;19951;-62
2021/09/27 00:21:15;;;;;;;;;;;16.80;99.90;;;;;;5065959;28;19920;-62
2021/09/27 00:23:41;;;;;;;;;;;16.80;99.90;;;;;;5085051;28;20147;-62
2021/09/27 00:26:07;;;;;;;;;;;16.90;99.90;;;;;;5065828;28;19927;-61
2021/09/27 00:28:33;;;;;;;;;;;16.80;99.90;;;;;;5063723;28;19948;-62
2021/09/27 00:30:58;;;;;;;;;;;16.90;99.90;;;;;;5067649;28;20208;-61
2021/09/27 00:33:24;;;;;;;;;;;16.80;99.90;;;;;;5068570;28;19912;-61
2021/09/27 00:35:50;;;;;;;;;;;16.70;99.90;;;;;;5069519;28;20229;-61
2021/09/27 00:38:16;;;;;;;;;;;16.70;99.90;;;;;;5068502;28;19912;-61
2021/09/27 00:40:45;;;;;;;;;;;16.70;99.90;;;;;;5068368;28;20052;-61
2021/09/27 00:43:10;;;;;;;;;;;16.70;99.90;;;;;;5072375;28;19912;-62
2021/09/27 00:45:39;;;;;;;;;;;16.70;99.90;;;;;;5068224;28;19984;-61
2021/09/27 00:48:05;;;;;;;;;;;16.70;99.90;;;;;;5071023;28;20142;-61
2021/09/27 00:50:33;;;;;;;;;;;16.70;99.90;;;;;;5066589;28;20195;-62
2021/09/27 00:53:01;;;;;;;;;;;16.70;99.90;;;;;;5073318;28;19958;-62
2021/09/27 00:55:28;;;;;;;;;;;16.60;99.90;;;;;;5072246;28;19958;-61
2021/09/27 00:57:54;;;;;;;;;;;16.60;99.90;;;;;;5068674;28;20217;-61
2021/09/27 01:00:21;;;;;;;;;;;16.50;99.90;;;;;;5068194;28;19996;-62
2021/09/27 01:02:46;;;;;;;;;;;16.50;99.90;;;;;;5071344;28;19912;-62
2021/09/27 01:05:14;;;;;;;;;;;16.50;99.90;;;;;;5069573;28;20010;-62
2021/09/27 01:07:39;;;;;;;;;;;16.40;99.90;;;;;;5073114;28;20146;-62
2021/09/27 01:10:08;;;;;;;;;;;16.50;99.90;;;;;;5072003;28;19912;-62
2021/09/27 01:12:52;;;;;;;;;;;16.50;99.90;;;;;;5068161;28;19918;-61
2021/09/27 01:15:21;;;;;;;;;;;16.50;99.90;;;;;;5068528;28;19919;-61
2021/09/27 01:18:10;;;;;;;;;;;16.60;99.90;;;;;;5071010;28;19912;-62
2021/09/27 01:20:46;;;;;;;;;;;16.60;99.90;;;;;;5068012;28;20045;-62
2021/09/27 01:23:15;;;;;;;;;;;16.50;99.90;;;;;;5072683;28;20181;-62
2021/09/27 01:25:51;;;;;;;;;;;16.40;99.90;;;;;;5071568;28;19949;-62
2021/09/27 01:28:34;;;;;;;;;;;16.30;99.90;;;;;;5084099;28;19958;-62
2021/09/27 01:31:00;;;;;;;;;;;16.30;99.90;;;;;;5072462;28;19913;-62
2021/09/27 01:33:39;;;;;;;;;;;16.30;99.90;;;;;;5069747;28;19955;-62
2021/09/27 01:36:11;;;;;;;;;;;16.30;99.90;;;;;;5069744;28;20427;-62
2021/09/27 01:38:43;;;;;;;;;;;16.30;99.90;;;;;;5071461;28;19919;-62
2021/09/27 01:41:12;;;;;;;;;;;16.30;99.90;;;;;;5071536;28;19955;-61
2021/09/27 01:43:41;;;;;;;;;;;16.30;99.90;;;;;;5072747;28;19924;-62
2021/09/27 01:46:17;;;;;;;;;;;16.30;99.90;;;;;;5068887;28;19913;-63
2021/09/27 01:48:52;;;;;;;;;;;16.20;99.90;;;;;;5066790;28;20080;-62
2021/09/27 01:51:37;;;;;;;;;;;16.30;99.90;;;;;;5069111;28;19920;-61
2021/09/27 01:54:15;;;;;;;;;;;16.30;99.90;;;;;;5068186;28;19912;-62
2021/09/27 01:56:40;;;;;;;;;;;16.20;99.90;;;;;;5065420;28;20445;-62
2021/09/27 01:59:06;;;;;;;;;;;16.20;99.90;;;;;;5068944;28;20234;-62
2021/09/27 02:01:51;;;;;;;;;;;16.30;99.90;;;;;;5067704;28;20178;-62
2021/09/27 02:04:21;;;;;;;;;;;16.30;99.90;;;;;;5084979;28;20115;-62
2021/09/27 02:06:48;;;;;;;;;;;16.20;99.90;;;;;;5071653;28;19917;-62
2021/09/27 02:09:17;;;;;;;;;;;16.20;99.90;;;;;;5069773;28;19979;-61
2021/09/27 02:11:47;;;;;;;;;;;16.10;99.90;;;;;;5072384;28;19920;-62
2021/09/27 02:14:24;;;;;;;;;;;16.10;99.90;;;;;;5068775;28;19913;-61
2021/09/27 02:16:58;;;;;;;;;;;16.10;99.90;;;;;;5071736;28;19928;-61
2021/09/27 02:19:35;;;;;;;;;;;16.10;99.90;;;;;;5068329;28;19912;-62
2021/09/27 02:22:08;;;;;;;;;;;16.20;99.90;;;;;;5063645;28;19927;-62
2021/09/27 02:24:39;;;;;;;;;;;16.10;99.90;;;;;;5069033;28;19951;-62
2021/09/27 02:27:05;;;;;;;;;;;16.00;99.90;;;;;;5069261;28;19912;-62
2021/09/27 02:29:31;;;;;;;;;;;16.00;99.90;;;;;;5068901;28;19912;-62
2021/09/27 02:32:15;;;;;;;;;;;16.10;99.90;;;;;;5069168;28;19912;-62
2021/09/27 02:34:50;;;;;;;;;;;16.10;99.90;;;;;;5069232;28;20073;-62
2021/09/27 02:37:19;;;;;;;;;;;16.10;99.90;;;;;;5068354;28;19923;-62
2021/09/27 02:39:50;;;;;;;;;;;16.10;99.90;;;;;;5067892;28;19912;-62
2021/09/27 02:42:21;;;;;;;;;;;16.10;99.90;;;;;;5070755;28;19916;-62
2021/09/27 02:44:47;;;;;;;;;;;16.10;99.90;;;;;;5065229;28;19920;-62
2021/09/27 02:47:17;;;;;;;;;;;16.10;99.90;;;;;;5070685;28;19958;-62
2021/09/27 02:49:45;;;;;;;;;;;16.20;99.90;;;;;;5065391;28;19919;-62
2021/09/27 02:52:13;;;;;;;;;;;16.20;99.90;;;;;;5069482;28;19958;-63
2021/09/27 02:54:41;;;;;;;;;;;16.10;99.90;;;;;;5069791;28;20288;-62
2021/09/27 02:57:19;;;;;;;;;;;16.10;99.90;;;;;;5070483;28;19912;-62
2021/09/27 02:59:53;;;;;;;;;;;16.20;99.90;;;;;;5067350;28;20118;-62
2021/09/27 03:02:38;;;;;;;;;;;16.10;99.90;;;;;;5069315;28;19912;-62
2021/09/27 03:05:22;;;;;;;;;;;16.10;99.90;;;;;;5068108;28;19912;-62
2021/09/27 03:07:48;;;;;;;;;;;16.10;99.90;;;;;;5086751;28;20177;-62
2021/09/27 03:10:26;;;;;;;;;;;16.00;99.90;;;;;;5067226;28;19949;-62
2021/09/27 03:13:10;;;;;;;;;;;16.10;99.90;;;;;;5068855;28;19912;-62
2021/09/27 03:15:51;;;;;;;;;;;16.00;99.90;;;;;;5066748;28;20130;-62
2021/09/27 03:18:32;;;;;;;;;;;16.00;99.90;;;;;;5067722;28;19912;-62
2021/09/27 03:21:16;;;;;;;;;;;16.00;99.90;;;;;;5062144;28;20306;-62
2021/09/27 03:23:45;;;;;;;;;;;16.10;99.90;;;;;;5085768;28;20297;-62
2021/09/27 03:26:11;;;;;;;;;;;16.10;99.90;;;;;;5070178;28;19999;-62
2021/09/27 03:28:52;;;;;;;;;;;16.00;99.90;;;;;;5067537;28;20111;-62
2021/09/27 03:31:24;;;;;;;;;;;16.10;99.90;;;;;;5069557;28;19947;-62
2021/09/27 03:34:08;;;;;;;;;;;16.10;99.90;;;;;;5070324;28;19912;-62
2021/09/27 03:36:33;;;;;;;;;;;16.00;99.90;;;;;;5059198;28;19920;-62
2021/09/27 03:39:14;;;;;;;;;;;16.00;99.90;;;;;;5067822;28;19919;-62
2021/09/27 03:41:45;;;;;;;;;;;16.10;99.90;;;;;;5069647;28;20044;-62
2021/09/27 03:44:29;;;;;;;;;;;16.10;99.90;;;;;;5065861;28;19956;-62
2021/09/27 03:46:55;;;;;;;;;;;16.00;99.90;;;;;;5069100;28;21789;-62
2021/09/27 03:49:34;;;;;;;;;;;16.10;99.90;;;;;;5067492;28;19928;-62
2021/09/27 03:52:02;;;;;;;;;;;16.00;99.90;;;;;;5066585;28;19912;-62
2021/09/27 03:54:31;;;;;;;;;;;16.00;99.90;;;;;;5065676;28;20227;-62
2021/09/27 03:57:13;;;;;;;;;;;16.00;99.90;;;;;;5065451;28;19913;-62
2021/09/27 03:59:38;;;;;;;;;;;16.10;99.90;;;;;;5058864;28;20189;-62
2021/09/27 04:02:23;;;;;;;;;;;16.00;99.90;;;;;;5052056;28;19912;-74
2021/09/27 04:05:09;;;;;;;;;;;16.10;99.90;;;;;;5059877;28;19974;-75
2021/09/27 04:07:54;;;;;;;;;;;16.00;99.90;;;;;;5058671;28;19912;-74
2021/09/27 04:10:20;;;;;;;;;;;16.00;99.90;;;;;;5058473;28;19917;-74
2021/09/27 04:12:55;;;;;;;;;;;15.90;99.90;;;;;;5061797;28;19912;-72
2021/09/27 04:15:28;;;;;;;;;;;15.90;99.90;;;;;;5060399;28;19935;-73
2021/09/27 04:18:12;;;;;;;;;;;15.90;99.90;;;;;;5069265;28;19995;-73
2021/09/27 04:20:44;;;;;;;;;;;15.90;99.90;;;;;;5062746;28;20228;-73
2021/09/27 04:23:27;;;;;;;;;;;15.90;99.90;;;;;;5068665;28;19913;-73
2021/09/27 04:26:02;;;;;;;;;;;15.90;99.90;;;;;;5063963;28;20413;-73
2021/09/27 04:28:31;;;;;;;;;;;15.90;99.90;;;;;;5065073;28;20018;-72
2021/09/27 04:31:15;;;;;;;;;;;16.00;99.90;;;;;;5068007;28;20175;-73
2021/09/27 04:33:52;;;;;;;;;;;15.90;99.90;;;;;;5070441;28;19967;-73
2021/09/27 04:36:25;;;;;;;;;;;15.90;99.90;;;;;;5063965;28;20110;-73
2021/09/27 04:38:53;;;;;;;;;;;15.90;99.90;;;;;;5065539;28;19919;-73
2021/09/27 04:41:29;;;;;;;;;;;15.90;99.90;;;;;;5061387;28;19921;-73
2021/09/27 04:44:13;;;;;;;;;;;16.00;99.90;;;;;;5062368;28;19927;-73
2021/09/27 04:46:51;;;;;;;;;;;15.90;99.90;;;;;;5067298;28;19920;-73
2021/09/27 04:49:20;;;;;;;;;;;16.00;99.90;;;;;;5057702;28;20191;-73
2021/09/27 04:51:48;;;;;;;;;;;15.90;99.90;;;;;;5057346;28;20321;-73
2021/09/27 04:54:17;;;;;;;;;;;15.80;99.90;;;;;;5070797;28;19939;-72
2021/09/27 04:56:49;;;;;;;;;;;15.80;99.90;;;;;;5069516;28;19912;-72
2021/09/27 04:59:38;;;;;;;;;;;15.80;99.90;;;;;;5071796;28;20138;-73
2021/09/27 05:02:07;;;;;;;;;;;15.80;99.90;;;;;;5068117;28;19920;-73
2021/09/27 05:04:52;;;;;;;;;;;15.70;99.90;;;;;;5070766;28;19936;-73
2021/09/27 05:07:32;;;;;;;;;;;15.70;99.90;;;;;;5073984;28;20095;-73
2021/09/27 05:10:17;;;;;;;;;;;15.70;99.90;;;;;;5071322;28;20190;-73
2021/09/27 05:12:58;;;;;;;;;;;15.70;99.90;;;;;;5070476;28;19918;-73
2021/09/27 05:15:33;;;;;;;;;;;15.70;99.90;;;;;;5085445;28;19989;-73
2021/09/27 05:18:11;;;;;;;;;;;15.70;99.90;;;;;;5071576;28;20177;-73
2021/09/27 05:20:44;;;;;;;;;;;15.70;99.90;;;;;;5072288;28;19959;-73
2021/09/27 05:23:13;;;;;;;;;;;15.70;99.90;;;;;;5066650;28;19913;-73
2021/09/27 05:25:57;;;;;;;;;;;15.70;99.90;;;;;;5072074;28;19912;-73
2021/09/27 05:28:41;;;;;;;;;;;15.70;99.90;;;;;;5063456;28;19913;-73
2021/09/27 05:31:19;;;;;;;;;;;15.60;99.90;;;;;;5070220;28;20007;-73
2021/09/27 05:34:00;;;;;;;;;;;15.60;99.90;;;;;;5073781;28;19916;-73
2021/09/27 05:36:38;;;;;;;;;;;15.60;99.90;;;;;;5072493;28;19947;-73
2021/09/27 05:39:22;;;;;;;;;;;15.60;99.90;;;;;;5073155;28;19952;-74
2021/09/27 05:42:07;;;;;;;;;;;15.50;99.90;;;;;;5065866;28;20141;-73
2021/09/27 05:44:35;;;;;;;;;;;15.50;99.90;;;;;;5072573;28;20206;-73
2021/09/27 05:47:27;;;;;;;;;;;15.60;99.90;;;;;;5073314;28;19919;-73
2021/09/27 05:50:02;;;;;;;;;;;15.60;99.90;;;;;;5069769;28;20033;-73
2021/09/27 05:52:32;;;;;;;;;;;15.60;99.90;;;;;;5073088;28;19919;-73
2021/09/27 05:55:13;;;;;;;;;;;15.60;99.90;;;;;;5072423;28;19912;-73
2021/09/27 05:57:50;;;;;;;;;;;15.60;99.90;;;;;;5072122;28;19918;-73
2021/09/27 06:00:29;;;;;;;;;;;15.50;99.90;;;;;;5071214;28;20254;-73
2021/09/27 06:03:05;;;;;;;;;;;15.50;99.90;;;;;;5073823;28;20199;-73
2021/09/27 06:05:40;;;;;;;;;;;15.50;99.90;;;;;;5071575;28;19921;-74
2021/09/27 06:08:18;;;;;;;;;;;15.40;99.90;;;;;;5073495;28;19919;-72
2021/09/27 06:10:46;;;;;;;;;;;15.40;99.90;;;;;;5071471;28;20249;-73
2021/09/27 06:13:21;;;;;;;;;;;15.50;99.90;;;;;;5073641;28;19912;-73
2021/09/27 06:15:48;;;;;;;;;;;15.50;99.90;;;;;;5071514;28;19975;-73
2021/09/27 06:18:29;;;;;;;;;;;15.60;99.90;;;;;;5071934;28;19912;-73
2021/09/27 06:21:24;;;;;;;;;;;15.60;99.90;;;;;;5067767;28;19926;-73
2021/09/27 06:23:58;;;;;;;;;;;15.60;99.90;;;;;;5070175;28;19919;-73
2021/09/27 06:26:26;;;;;;;;;;;15.70;99.90;;;;;;5072543;28;19918;-73
2021/09/27 06:28:55;;;;;;;;;;;15.80;99.90;;;;;;5072929;28;20210;-73
2021/09/27 06:31:39;;;;;;;;;;;15.70;99.90;;;;;;5070032;28;19974;-73
2021/09/27 06:34:30;;;;;;;;;;;15.80;99.90;;;;;;5072286;28;20202;-73
2021/09/27 06:36:57;;;;;;;;;;;15.80;99.90;;;;;;5072566;28;19948;-73
2021/09/27 06:39:26;;;;;;;;;;;15.80;99.90;;;;;;5073071;28;19908;-73
2021/09/27 06:41:52;;;;;;;;;;;15.80;99.90;;;;;;5067721;28;19920;-74
2021/09/27 06:44:18;;;;;;;;;;;15.60;99.90;;;;;;5071512;28;19920;-73
2021/09/27 06:46:45;;;;;;;;;;;15.70;99.90;;;;;;5070737;28;19912;-73
2021/09/27 06:49:11;;;;;;;;;;;15.60;99.90;;;;;;5070615;28;19919;-74
2021/09/27 06:51:41;;;;;;;;;;;15.70;99.90;;;;;;5072328;28;19916;-73
2021/09/27 06:54:17;;;;;;;;;;;15.70;99.90;;;;;;5073848;28;19974;-74
2021/09/27 06:56:43;;;;;;;;;;;15.80;99.90;;;;;;5071615;28;19943;-74
2021/09/27 06:59:09;;;;;;;;;;;15.80;99.90;;;;;;5071968;28;19916;-73
2021/09/27 07:01:35;;;;;;;;;;;15.80;99.90;;;;;;5071176;28;19920;-73
2021/09/27 07:04:01;;;;;;;;;;;15.90;99.90;;;;;;5071240;28;20091;-73
2021/09/27 07:06:26;;;;;;;;;;;15.90;99.90;;;;;;5063877;28;19931;-72
2021/09/27 07:08:53;;;;;;;;;;;16.00;99.90;;;;;;5071668;28;19919;-73
2021/09/27 07:11:19;;;;;;;;;;;16.00;99.90;;;;;;5071699;28;19916;-73
2021/09/27 07:13:45;;;;;;;;;;;16.00;99.90;;;;;;5069927;28;20409;-73
2021/09/27 07:16:10;;;;;;;;;;;16.00;99.90;;;;;;5072337;28;20191;-73
2021/09/27 07:18:37;;;;;;;;;;;16.10;99.90;;;;;;5071051;28;19912;-73
2021/09/27 07:21:06;;;;;;;;;;;16.30;99.90;;;;;;5070132;28;19996;-73
2021/09/27 07:23:38;;;;;;;;;;;16.30;99.90;;;;;;5073367;28;19912;-73
2021/09/27 07:26:12;;;;;;;;;;;16.30;99.90;;;;;;5070972;28;19908;-73
2021/09/27 07:28:38;;;;;;;;;;;16.40;99.90;;;;;;5087558;28;19950;-73
2021/09/27 07:31:05;;;;;;;;;;;16.40;99.90;;;;;;5071953;28;19920;-73
2021/09/27 07:33:30;;;;;;;;;;;16.50;99.90;;;;;;5071820;28;19912;-73
2021/09/27 07:35:56;;;;;;;;;;;16.60;99.90;;;;;;5071731;28;20244;-73
2021/09/27 07:38:23;;;;;;;;;;;16.60;99.90;;;;;;5054123;28;20198;-73
2021/09/27 07:40:49;;;;;;;;;;;16.60;99.90;;;;;;5071578;28;20214;-73
2021/09/27 07:43:15;;;;;;;;;;;16.70;99.90;;;;;;5071828;28;20284;-73
2021/09/27 07:45:40;;;;;;;;;;;16.70;99.90;;;;;;5072027;28;19912;-73
2021/09/27 07:48:10;;;;;;;;;;;16.70;99.90;;;;;;5070539;28;20011;-73
2021/09/27 07:50:37;;;;;;;;;;;16.80;99.90;;;;;;5085332;28;19916;-73
2021/09/27 07:53:03;;;;;;;;;;;16.70;99.90;;;;;;5072043;28;19912;-73
2021/09/27 07:55:29;;;;;;;;;;;16.80;99.90;;;;;;5072018;28;20503;-73
2021/09/27 07:57:55;;;;;;;;;;;16.80;99.90;;;;;;5070212;28;19916;-73
2021/09/27 08:00:21;;;;;;;;;;;16.70;99.90;;;;;;5069247;28;19952;-73
2021/09/27 08:02:46;;;;;;;;;;;16.70;99.90;;;;;;5065761;28;19919;-73
2021/09/27 08:05:15;;;;;;;;;;;16.70;99.90;;;;;;5068615;28;19912;-73
2021/09/27 08:07:41;;;;;;;;;;;16.70;99.90;;;;;;5068601;28;19919;-73
2021/09/27 08:10:07;;;;;;;;;;;16.70;99.90;;;;;;5072532;28;19909;-73
2021/09/27 08:12:37;;;;;;;;;;;16.70;99.90;;;;;;5068680;28;20100;-73
2021/09/27 08:15:04;;;;;;;;;;;16.70;99.90;;;;;;5072044;28;19912;-73
2021/09/27 08:17:29;;;;;;;;;;;16.70;99.90;;;;;;5069666;28;19981;-74
2021/09/27 08:19:56;;;;;;;;;;;16.80;99.90;;;;;;5071595;28;19912;-75
2021/09/27 08:22:22;;;;;;;;;;;16.80;99.90;;;;;;5069921;28;19912;-74
2021/09/27 08:24:47;;;;;;;;;;;16.80;99.90;;;;;;5071595;28;19940;-73
2021/09/27 08:27:13;;;;;;;;;;;16.80;99.90;;;;;;5069401;28;19919;-74
2021/09/27 08:29:39;;;;;;;;;;;16.80;99.90;;;;;;5071198;28;20002;-73
2021/09/27 08:32:05;;;;;;;;;;;16.80;99.90;;;;;;5070417;28;19912;-74
2021/09/27 08:34:30;;;;;;;;;;;16.80;99.90;;;;;;5072047;28;20006;-74
2021/09/27 08:36:58;;;;;;;;;;;16.90;99.90;;;;;;5070865;28;19912;-74
2021/09/27 08:39:24;;;;;;;;;;;17.00;99.90;;;;;;5072205;28;20158;-74
2021/09/27 08:41:53;;;;;;;;;;;17.10;99.90;;;;;;5067584;28;20153;-73
2021/09/27 08:44:22;;;;;;;;;;;17.10;99.90;;;;;;5066943;28;20360;-74
2021/09/27 08:46:51;;;;;;;;;;;17.10;99.90;;;;;;5066294;28;19959;-73
2021/09/27 08:49:32;;;;;;;;;;;17.10;99.90;;;;;;5071494;28;19916;-74
2021/09/27 08:51:58;;;;;;;;;;;17.10;99.90;;;;;;5069809;28;20106;-74
2021/09/27 08:54:25;;;;;;;;;;;17.00;99.90;;;;;;5071962;28;20242;-74
2021/09/27 08:57:09;;;;;;;;;;;17.00;99.90;;;;;;5070764;28;19912;-73
2021/09/27 08:59:50;;;;;;;;;;;17.00;99.90;;;;;;5084815;28;19950;-73
2021/09/27 09:02:31;;;;;;;;;;;17.00;99.90;;;;;;5069359;28;19920;-73
2021/09/27 09:05:12;;;;;;;;;;;17.00;99.90;;;;;;5067517;28;19913;-73
2021/09/27 09:07:44;;;;;;;;;;;17.10;99.90;;;;;;5067564;28;20379;-73
2021/09/27 09:10:11;;;;;;;;;;;17.20;99.90;;;;;;5068779;28;20234;-73
2021/09/27 09:12:57;;;;;;;;;;;17.30;99.90;;;;;;5071288;28;19913;-73
2021/09/27 09:15:25;;;;;;;;;;;17.40;99.90;;;;;;5069705;28;19919;-73
2021/09/27 09:18:17;;;;;;;;;;;17.50;99.90;;;;;;5072261;28;19919;-73
2021/09/27 09:20:43;;;;;;;;;;;17.40;99.90;;;;;;5074449;28;20201;-73
2021/09/27 09:23:12;;;;;;;;;;;17.50;99.90;;;;;;5071987;28;19919;-73
2021/09/27 09:25:39;;;;;;;;;;;17.50;99.90;;;;;;5070123;28;19935;-73
2021/09/27 09:28:06;;;;;;;;;;;17.60;99.90;;;;;;5070301;28;19913;-73
2021/09/27 09:30:39;;;;;;;;;;;17.60;99.90;;;;;;5068515;28;19935;-74
2021/09/27 09:33:05;;;;;;;;;;;17.80;99.90;;;;;;5065195;28;20118;-73
2021/09/27 09:36:40;;;;;;;29.08;22.35;;;17.90;99.90;;;;;;5103642;27;1261711;-72
2021/09/27 09:39:18;;;;;;;32.95;24.33;;;18.00;99.90;;;;;;5151496;27;20406;-72
2021/09/27 09:41:47;;;;;;;38.67;24.98;;;17.90;99.90;;;;;;5151750;27;20034;-72
2021/09/27 09:44:21;;;;;;;33.40;24.23;;;17.90;99.90;;;;;;5133845;27;20049;-72
2021/09/27 09:47:02;;;;;;;34.67;26.42;;;17.90;99.90;;;;;;5136051;27;20079;-72
2021/09/27 09:49:30;;;;;;;36.97;25.70;;;17.80;99.90;;;;;;5157900;27;20049;-73
2021/09/27 09:52:03;;;;;;;38.58;27.95;;;17.70;99.90;;;;;;5158229;27;20038;-73
2021/09/27 09:54:38;;;;;;;34.08;25.50;;;17.70;99.90;;;;;;5159410;27;20023;-72
2021/09/27 09:57:31;;;;;;;37.72;26.90;;;17.70;99.90;;;;;;5155637;27;20335;-73
2021/09/27 10:00:08;;;;;;;32.40;25.48;;;17.60;99.90;;;;;;5153304;27;20025;-73
2021/09/27 10:02:39;;;;;;;33.42;26.83;;;17.70;99.90;;;;;;5152815;27;20026;-72
2021/09/27 10:05:18;;;;;;;34.60;28.00;;;17.70;99.90;;;;;;5158624;27;20289;-72
2021/09/27 10:07:57;;;;;;;31.83;26.50;;;17.60;99.90;;;;;;5157201;27;20317;-73
2021/09/27 10:10:36;;;;;;;31.40;25.92;;;17.70;99.90;;;;;;5151178;27;20114;-73
2021/09/27 10:13:05;;;;;;;33.95;26.85;;;17.70;99.90;;;;;;5158331;27;20329;-73
2021/09/27 10:15:34;;;;;;;32.25;26.52;;;17.80;99.90;;;;;;5154653;27;20042;-72
2021/09/27 10:18:22;;;;;;;32.72;25.63;;;17.70;99.90;;;;;;5158795;27;20027;-73
2021/09/27 10:21:18;;;;;;;35.58;27.70;;;17.80;99.90;;;;;;5144186;27;20049;-73
2021/09/27 10:23:55;;;;;;;32.30;26.33;;;17.90;99.90;;;;;;5141592;27;20030;-73
2021/09/27 10:26:37;;;;;;;35.13;28.05;;;18.00;99.90;;;;;;5160671;27;20011;-74
2021/09/27 10:29:15;;;;;;;36.72;29.90;;;18.00;99.90;;;;;;5160526;27;20036;-73
2021/09/27 10:32:14;;;;;;;35.70;29.50;;;18.00;99.90;;;;;;5160700;27;20031;-73
2021/09/27 10:34:40;;;;;;;38.10;31.52;;;18.10;99.90;;;;;;5144849;27;20046;-74
2021/09/27 10:37:10;;;;;;;37.78;32.33;;;18.10;99.90;;;;;;5160013;27;20063;-73
2021/09/27 10:39:36;;;;;;;41.03;33.85;;;18.10;99.90;;;;;;5160416;27;20054;-73
2021/09/27 10:42:08;;;;;;;46.47;35.65;;;18.20;99.90;;;;;;5160319;27;20030;-75
2021/09/27 10:44:46;;;;;;;45.45;36.60;;;18.20;99.90;;;;;;5148965;27;20022;-73
2021/09/27 10:47:18;;;;;;;47.20;38.22;;;18.20;99.90;;;;;;5149802;27;20030;-74
2021/09/27 10:49:53;;;;;;;49.67;37.45;;;18.20;99.90;;;;;;5145482;27;20293;-73
2021/09/27 10:52:21;;;;;;;45.58;37.67;;;18.30;99.90;;;;;;5139405;27;20043;-74
2021/09/27 10:55:06;;;;;;;45.97;37.88;;;18.40;99.90;;;;;;5144723;27;20038;-74
2021/09/27 10:57:49;;;;;;;46.47;37.88;;;18.60;99.90;;;;;;5143291;27;20336;-73
2021/09/27 11:00:28;;;;;;;46.38;36.90;;;18.70;99.90;;;;;;5144735;27;20386;-74
2021/09/27 11:03:13;;;;;;;46.15;37.47;;;18.70;99.90;;;;;;5145905;27;20225;-73
2021/09/27 11:05:47;;;;;;;47.17;38.15;;;18.70;99.90;;;;;;5144943;27;20348;-74
2021/09/27 11:08:17;;;;;;;46.70;39.38;;;18.70;99.90;;;;;;5143210;27;20375;-74
2021/09/27 11:10:49;;;;;;;;;;;18.60;99.90;;;;;;5140676;27;20027;-75
2021/09/27 11:13:38;;;;;;;57.75;41.97;;;18.50;99.90;;;;;;5146203;27;19907;-75
2021/09/27 11:16:30;;;;;;;56.22;42.03;;;18.50;99.90;;;;;;5126034;27;20118;-74
2021/09/27 11:19:07;;;;;;;54.88;44.05;;;18.40;99.90;;;;;;5144178;27;20031;-75
2021/09/27 11:21:35;;;;;;;58.05;45.03;;;18.40;99.90;;;;;;5144559;27;20103;-75
2021/09/27 11:24:24;;;;;;;58.15;45.60;;;18.40;99.90;;;;;;5143812;27;20026;-74
2021/09/27 11:26:59;;;;;;;62.13;47.30;;;18.30;99.90;;;;;;5123661;27;20031;-75
2021/09/27 11:29:30;;;;;;;62.88;48.90;;;18.30;99.90;;;;;;5145267;27;20019;-74
2021/09/27 11:32:16;;;;;;;62.55;46.72;;;18.30;99.90;;;;;;5124561;27;20038;-73
2021/09/27 11:34:53;;;;;;;64.32;48.00;;;18.40;99.90;;;;;;5142655;27;20039;-74
2021/09/27 11:37:25;;;;;;;54.90;43.63;;;18.60;99.90;;;;;;5144638;27;20080;-74
2021/09/27 11:40:01;;;;;;;58.70;46.30;;;18.70;99.90;;;;;;5125378;27;20337;-75
2021/09/27 11:42:33;;;;;;;54.67;44.08;;;18.80;99.90;;;;;;5138580;27;20125;-74
2021/09/27 11:44:59;;;;;;;61.58;47.55;;;18.90;99.90;;;;;;5144899;27;20090;-75
2021/09/27 11:47:44;;;;;;;58.30;45.50;;;18.90;99.90;;;;;;5143545;27;20247;-74
2021/09/27 11:50:47;;;;;;;61.45;46.63;;;18.80;99.90;;;;;;5144547;27;20257;-75
2021/09/27 11:53:36;;;;;;;62.92;48.47;;;18.80;99.90;;;;;;5138706;27;20042;-75
2021/09/27 11:56:23;;;;;;;60.85;47.55;;;18.70;99.90;;;;;;5143180;27;20665;-75
2021/09/27 11:58:51;;;;;;;62.83;47.42;;;18.70;99.90;;;;;;5143361;27;20057;-75
2021/09/27 12:01:52;;;;;;;65.72;49.03;;;18.70;99.90;;;;;;5143355;27;20041;-74
2021/09/27 12:04:42;;;;;;;69.80;51.63;;;18.70;99.90;;;;;;5140030;27;20140;-73
2021/09/27 12:07:13;;;;;;;65.30;47.97;;;18.70;99.90;;;;;;5141546;27;20364;-74
2021/09/27 12:09:55;;;;;;;64.50;50.25;;;18.70;99.90;;;;;;5124655;27;20030;-73
2021/09/27 12:12:26;;;;;;;64.43;49.00;;;18.80;99.90;;;;;;5142668;27;20027;-74
2021/09/27 12:14:53;;;;;;;65.30;48.00;;;18.80;99.90;;;;;;5144191;27;20054;-75
2021/09/27 12:17:26;;;;;;;59.35;46.53;;;18.90;99.90;;;;;;5143889;27;20031;-74
2021/09/27 12:19:59;;;;;;;62.05;47.22;;;19.00;99.90;;;;;;5144255;27;20019;-76
2021/09/27 12:22:35;;;;;;;60.00;46.63;;;19.00;99.90;;;;;;5140934;27;20353;-74
2021/09/27 12:25:07;;;;;;;60.55;43.55;;;19.00;99.90;;;;;;5143919;27;20026;-74
2021/09/27 12:27:34;;;;;;;54.92;41.72;;;18.90;99.90;;;;;;5144437;27;20059;-74
2021/09/27 12:30:11;;;;;;;48.03;38.25;;;19.00;99.90;;;;;;5143648;27;20116;-75
2021/09/27 12:32:55;;;;;;;57.22;39.63;;;19.00;99.90;;;;;;5143359;27;20026;-75
2021/09/27 12:35:25;;;;;;;49.90;38.25;;;19.10;99.90;;;;;;5140548;27;20053;-73
2021/09/27 12:37:54;;;;;;;46.08;37.67;;;19.10;99.90;;;;;;5123823;27;20238;-74
2021/09/27 12:40:24;;;;;;;49.78;38.70;;;19.20;99.90;;;;;;5144120;27;20022;-74
2021/09/27 12:43:02;;;;;;;46.35;36.03;;;19.40;99.90;;;;;;5143437;27;20035;-75
2021/09/27 12:45:41;;;;;;;45.35;34.55;;;19.70;99.90;;;;;;5141957;27;20061;-75
2021/09/27 12:48:17;;;;;;;40.55;30.23;;;20.00;99.90;;;;;;5144051;27;20258;-74
2021/09/27 12:50:55;;;;;;;39.05;29.33;;;20.10;99.90;;;;;;5143296;27;20041;-74
2021/09/27 12:53:40;;;;;;;33.75;27.73;;;20.10;99.90;;;;;;5142831;27;20049;-75
2021/09/27 12:56:13;;;;;;;32.13;27.50;;;20.00;99.90;;;;;;5141617;27;20058;-74
2021/09/27 12:58:42;;;;;;;31.83;27.00;;;19.90;99.90;;;;;;5142425;27;20031;-75
2021/09/27 13:01:21;;;;;;;33.17;26.73;;;19.80;99.90;;;;;;5141311;27;20034;-74
2021/09/27 13:03:59;;;;;;;31.25;25.73;;;19.70;99.90;;;;;;5124459;27;20027;-74
2021/09/27 13:06:31;;;;;;;33.67;27.17;;;19.70;99.90;;;;;;5142611;27;20027;-75
2021/09/27 13:09:24;;;;;;;32.25;25.95;;;19.70;99.90;;;;;;5141366;27;20048;-74
2021/09/27 13:12:23;;;;;;;29.73;25.42;;;19.60;99.90;;;;;;5140010;27;20379;-75
2021/09/27 13:14:53;;;;;;;;;;;19.60;99.90;;;;;;5142699;27;20039;-74
2021/09/27 13:17:25;;;;;;;23.63;17.55;;;19.60;99.90;;;;;;5143032;27;19917;-75
2021/09/27 13:19:55;;;;;;;23.95;17.60;;;19.70;99.90;;;;;;5142697;27;20095;-74
2021/09/27 13:22:26;;;;;;;19.73;15.82;;;19.70;99.90;;;;;;5142064;27;20356;-75
2021/09/27 13:25:25;;;;;;;19.42;15.38;;;19.80;99.90;;;;;;5142436;27;20242;-74
2021/09/27 13:28:01;;;;;;;20.90;14.40;;;19.80;99.90;;;;;;5138958;27;20258;-75
2021/09/27 13:30:31;;;;;;;16.80;13.60;;;20.00;99.90;;;;;;5142007;27;20319;-74
2021/09/27 13:33:01;;;;;;;15.48;13.10;;;20.10;99.90;;;;;;5142811;27;20035;-76
2021/09/27 13:35:36;;;;;;;17.02;12.93;;;20.40;99.90;;;;;;5106128;27;20043;-74
2021/09/27 13:38:34;;;;;;;14.70;11.55;;;20.60;99.90;;;;;;5142526;27;20229;-74
2021/09/27 13:41:08;;;;;;;18.25;12.18;;;20.70;99.90;;;;;;5131420;27;20247;-75
2021/09/27 13:43:34;;;;;;;15.88;10.95;;;20.70;99.90;;;;;;5139304;27;20031;-74
2021/09/27 13:46:13;;;;;;;12.65;8.90;;;20.50;99.90;;;;;;5141956;27;20284;-75
2021/09/27 13:48:39;;;;;;;17.58;8.48;;;20.50;99.90;;;;;;5141785;27;20023;-75
2021/09/27 13:51:06;;;;;;;12.15;7.95;;;20.50;99.90;;;;;;5141632;27;20030;-76
2021/09/27 13:53:42;;;;;;;13.98;8.77;;;20.40;99.90;;;;;;5143803;27;20121;-75
2021/09/27 13:56:11;;;;;;;10.75;8.27;;;20.30;99.90;;;;;;5141952;27;20031;-74
2021/09/27 13:58:37;;;;;;;9.77;7.53;;;20.20;99.90;;;;;;5142894;27;20317;-75
2021/09/27 14:01:03;;;;;;;16.45;9.13;;;20.20;99.90;;;;;;5141823;27;20928;-75
2021/09/27 14:03:29;;;;;;;16.90;8.63;;;20.20;99.90;;;;;;5142621;27;20038;-74
2021/09/27 14:05:59;;;;;;;18.00;8.88;;;20.20;99.90;;;;;;5141971;27;20019;-75
2021/09/27 14:08:26;;;;;;;13.25;7.95;;;20.20;99.90;;;;;;5141401;27;20019;-75
2021/09/27 14:10:53;;;;;;;10.50;7.30;;;20.20;99.90;;;;;;5142179;27;20022;-75
2021/09/27 14:13:26;;;;;;;10.63;7.40;;;20.40;99.90;;;;;;5141745;27;20075;-74
2021/09/27 14:15:53;;;;;;;10.57;6.38;;;20.20;99.90;;;;;;5138901;27;20079;-73